Terminal Aerodrome Forecast
Issued by NWS Paducah, KY

Home | Current Version | Previous Version | Text Only | Print | Product List | Glossary On
Versions: 1 2 3 4 5 6 7 8 9 10 11 12 13 14 15 16 17 18 19
253
FTUS43 KPAH 221721 AAA
TAFEVV
TAF AMD
KEVV 221721Z 2217/2318 15010KT P6SM -SHRA OVC014
      TEMPO 2219/2223 4SM SHRA BR
     FM230000 16007KT 6SM -SHRA OVC035
     FM231000 20006KT P6SM VCTS OVC015CB=

USA.gov is the U.S. government's official web portal to all federal, state and local government web resources and services.